sensor_id;sensor_type;location;lat;lon;timestamp;pressure;altitude;pressure_sealevel;temperature;humidity
37860;BME280;23698;52.014;5.190;2023-07-31T05:02:55;100656.41;;;21.66;100.00
37860;BME280;23698;52.014;5.190;2023-07-31T05:05:42;100658.78;;;21.37;100.00
37860;BME280;23698;52.014;5.190;2023-07-31T05:08:28;100660.03;;;21.67;100.00
37860;BME280;23698;52.014;5.190;2023-07-31T05:11:14;100657.25;;;21.14;100.00
37860;BME280;23698;52.014;5.190;2023-07-31T05:14:01;100665.34;;;21.31;100.00
37860;BME280;23698;52.014;5.190;2023-07-31T07:23:27;100547.25;;;21.86;100.00
37860;BME280;23698;52.014;5.190;2023-07-31T07:26:14;100541.19;;;22.40;100.00
37860;BME280;23698;52.014;5.190;2023-07-31T07:29:01;100546.69;;;22.20;100.00
37860;BME280;23698;52.014;5.190;2023-07-31T07:31:48;100549.38;;;21.53;100.00
37860;BME280;23698;52.014;5.190;2023-07-31T07:34:34;100533.16;;;22.34;100.00
37860;BME280;23698;52.014;5.190;2023-07-31T07:37:22;100555.50;;;21.81;100.00
37860;BME280;23698;52.014;5.190;2023-07-31T07:40:10;100545.03;;;21.98;100.00
37860;BME280;23698;52.014;5.190;2023-07-31T07:42:56;100546.16;;;22.33;100.00
37860;BME280;23698;52.014;5.190;2023-07-31T07:45:46;100538.66;;;22.08;100.00
37860;BME280;23698;52.014;5.190;2023-07-31T07:48:33;100533.41;;;21.91;100.00
37860;BME280;23698;52.014;5.190;2023-07-31T07:51:19;100533.97;;;22.44;100.00
37860;BME280;23698;52.014;5.190;2023-07-31T07:54:05;100538.38;;;21.84;100.00
37860;BME280;23698;52.014;5.190;2023-07-31T07:56:56;100531.06;;;22.91;100.00
37860;BME280;23698;52.014;5.190;2023-07-31T07:59:45;100538.50;;;23.00;100.00
37860;BME280;23698;52.014;5.190;2023-07-31T08:02:31;100539.50;;;23.30;100.00
37860;BME280;23698;52.014;5.190;2023-07-31T08:05:18;100532.72;;;22.97;100.00
37860;BME280;23698;52.014;5.190;2023-07-31T08:08:04;100536.31;;;22.97;100.00
37860;BME280;23698;52.014;5.190;2023-07-31T08:10:50;100524.09;;;23.24;100.00
37860;BME280;23698;52.014;5.190;2023-07-31T08:13:38;100523.22;;;22.43;100.00
37860;BME280;23698;52.014;5.190;2023-07-31T08:16:24;100519.06;;;22.56;100.00
37860;BME280;23698;52.014;5.190;2023-07-31T08:19:10;100522.41;;;23.73;100.00
37860;BME280;23698;52.014;5.190;2023-07-31T08:21:56;100518.78;;;22.27;100.00
37860;BME280;23698;52.014;5.190;2023-07-31T08:24:43;100509.66;;;22.57;100.00
37860;BME280;23698;52.014;5.190;2023-07-31T08:27:29;100523.44;;;23.37;100.00
37860;BME280;23698;52.014;5.190;2023-07-31T08:30:20;100520.47;;;22.02;100.00
37860;BME280;23698;52.014;5.190;2023-07-31T08:33:08;100514.38;;;23.27;100.00
37860;BME280;23698;52.014;5.190;2023-07-31T08:39:06;100506.59;;;22.63;100.00
37860;BME280;23698;52.014;5.190;2023-07-31T08:41:57;100520.53;;;23.58;100.00
37860;BME280;23698;52.014;5.190;2023-07-31T08:44:43;100505.28;;;22.30;100.00
37860;BME280;23698;52.014;5.190;2023-07-31T08:47:32;100505.53;;;22.44;100.00
37860;BME280;23698;52.014;5.190;2023-07-31T08:50:18;100506.09;;;22.36;100.00
37860;BME280;23698;52.014;5.190;2023-07-31T08:53:04;100503.63;;;23.20;100.00
37860;BME280;23698;52.014;5.190;2023-07-31T08:55:51;100515.06;;;23.48;100.00
37860;BME280;23698;52.014;5.190;2023-07-31T08:58:41;100505.28;;;22.40;100.00
37860;BME280;23698;52.014;5.190;2023-07-31T09:01:29;100499.66;;;22.66;100.00
37860;BME280;23698;52.014;5.190;2023-07-31T09:04:18;100503.69;;;22.99;100.00
37860;BME280;23698;52.014;5.190;2023-07-31T09:07:07;100508.41;;;22.94;100.00
37860;BME280;23698;52.014;5.190;2023-07-31T09:09:56;100515.13;;;22.72;100.00
37860;BME280;23698;52.014;5.190;2023-07-31T09:12:42;100501.16;;;22.07;100.00
37860;BME280;23698;52.014;5.190;2023-07-31T09:15:29;100509.69;;;23.22;100.00
37860;BME280;23698;52.014;5.190;2023-07-31T09:18:22;100510.28;;;23.19;100.00
37860;BME280;23698;52.014;5.190;2023-07-31T09:21:10;100502.06;;;22.93;100.00
37860;BME280;23698;52.014;5.190;2023-07-31T09:23:56;100493.47;;;23.05;100.00
37860;BME280;23698;52.014;5.190;2023-07-31T09:26:43;100497.72;;;23.37;100.00
37860;BME280;23698;52.014;5.190;2023-07-31T09:29:31;100499.66;;;23.36;100.00
37860;BME280;23698;52.014;5.190;2023-07-31T09:32:17;100495.94;;;23.12;100.00
37860;BME280;23698;52.014;5.190;2023-07-31T09:35:11;100493.72;;;23.53;100.00
37860;BME280;23698;52.014;5.190;2023-07-31T09:38:00;100497.34;;;23.54;100.00
37860;BME280;23698;52.014;5.190;2023-07-31T09:40:47;100502.38;;;23.47;100.00
37860;BME280;23698;52.014;5.190;2023-07-31T09:43:34;100505.56;;;23.19;100.00
37860;BME280;23698;52.014;5.190;2023-07-31T09:46:26;100483.72;;;22.22;100.00
37860;BME280;23698;52.014;5.190;2023-07-31T09:49:13;100492.84;;;23.18;100.00
37860;BME280;23698;52.014;5.190;2023-07-31T09:52:00;100501.75;;;23.10;100.00
37860;BME280;23698;52.014;5.190;2023-07-31T09:54:47;100489.19;;;23.73;100.00
37860;BME280;23698;52.014;5.190;2023-07-31T09:57:34;100497.44;;;23.38;100.00
37860;BME280;23698;52.014;5.190;2023-07-31T10:00:23;100495.28;;;24.04;100.00
37860;BME280;23698;52.014;5.190;2023-07-31T10:03:10;100499.91;;;23.80;100.00
37860;BME280;23698;52.014;5.190;2023-07-31T10:05:57;100491.81;;;22.99;100.00
37860;BME280;23698;52.014;5.190;2023-07-31T10:08:44;100480.59;;;23.69;100.00
37860;BME280;23698;52.014;5.190;2023-07-31T10:11:36;100493.63;;;24.38;100.00
37860;BME280;23698;52.014;5.190;2023-07-31T10:14:23;100486.84;;;23.51;100.00
37860;BME280;23698;52.014;5.190;2023-07-31T11:01:03;100480.69;;;23.99;100.00
37860;BME280;23698;52.014;5.190;2023-07-31T11:03:50;100481.50;;;23.65;100.00
37860;BME280;23698;52.014;5.190;2023-07-31T11:06:37;100492.88;;;24.56;100.00
37860;BME280;23698;52.014;5.190;2023-07-31T11:09:25;100478.56;;;23.51;100.00
37860;BME280;23698;52.014;5.190;2023-07-31T11:12:13;100500.97;;;24.47;100.00
37860;BME280;23698;52.014;5.190;2023-07-31T11:14:59;100497.63;;;22.97;100.00
37860;BME280;23698;52.014;5.190;2023-07-31T11:17:47;100483.72;;;23.63;100.00
37860;BME280;23698;52.014;5.190;2023-07-31T11:20:33;100486.38;;;24.12;100.00
37860;BME280;23698;52.014;5.190;2023-07-31T11:23:21;100483.97;;;24.59;100.00
37860;BME280;23698;52.014;5.190;2023-07-31T11:26:07;100486.03;;;23.90;100.00
37860;BME280;23698;52.014;5.190;2023-07-31T11:28:53;100482.09;;;24.49;100.00
37860;BME280;23698;52.014;5.190;2023-07-31T11:31:41;100466.31;;;23.17;100.00
37860;BME280;23698;52.014;5.190;2023-07-31T11:34:29;100464.75;;;23.46;100.00
37860;BME280;23698;52.014;5.190;2023-07-31T11:37:16;100463.66;;;23.81;100.00
37860;BME280;23698;52.014;5.190;2023-07-31T11:40:02;100464.00;;;23.35;100.00
37860;BME280;23698;52.014;5.190;2023-07-31T11:42:49;100470.06;;;23.82;100.00
37860;BME280;23698;52.014;5.190;2023-07-31T11:45:35;100463.75;;;24.05;100.00
37860;BME280;23698;52.014;5.190;2023-07-31T11:48:22;100470.75;;;23.58;100.00
37860;BME280;23698;52.014;5.190;2023-07-31T11:51:10;100463.84;;;24.24;100.00
37860;BME280;23698;52.014;5.190;2023-07-31T11:53:57;100461.94;;;23.90;100.00
37860;BME280;23698;52.014;5.190;2023-07-31T11:56:45;100470.91;;;25.08;100.00
37860;BME280;23698;52.014;5.190;2023-07-31T11:59:32;100482.00;;;25.08;100.00
37860;BME280;23698;52.014;5.190;2023-07-31T12:02:18;100489.72;;;24.09;100.00
37860;BME280;23698;52.014;5.190;2023-07-31T12:05:06;100481.16;;;23.71;100.00
37860;BME280;23698;52.014;5.190;2023-07-31T12:07:54;100483.66;;;24.07;100.00
37860;BME280;23698;52.014;5.190;2023-07-31T12:10:40;100469.72;;;23.49;100.00
37860;BME280;23698;52.014;5.190;2023-07-31T12:13:26;100486.25;;;23.59;100.00
37860;BME280;23698;52.014;5.190;2023-07-31T12:16:13;100485.16;;;24.24;100.00
37860;BME280;23698;52.014;5.190;2023-07-31T12:19:00;100470.72;;;23.63;100.00
37860;BME280;23698;52.014;5.190;2023-07-31T12:21:46;100460.16;;;23.26;100.00
37860;BME280;23698;52.014;5.190;2023-07-31T12:24:34;100460.16;;;24.05;100.00
37860;BME280;23698;52.014;5.190;2023-07-31T12:27:22;100460.78;;;24.50;100.00
37860;BME280;23698;52.014;5.190;2023-07-31T12:30:26;100453.63;;;24.20;100.00
37860;BME280;23698;52.014;5.190;2023-07-31T12:33:12;100452.69;;;24.59;100.00
37860;BME280;23698;52.014;5.190;2023-07-31T12:36:00;100458.16;;;24.64;100.00
37860;BME280;23698;52.014;5.190;2023-07-31T12:38:47;100445.16;;;24.83;100.00
37860;BME280;23698;52.014;5.190;2023-07-31T12:41:35;100442.19;;;24.99;100.00
37860;BME280;23698;52.014;5.190;2023-07-31T12:44:21;100441.94;;;24.76;100.00
37860;BME280;23698;52.014;5.190;2023-07-31T12:47:08;100436.25;;;25.24;100.00
37860;BME280;23698;52.014;5.190;2023-07-31T12:49:54;100429.97;;;24.57;100.00
37860;BME280;23698;52.014;5.190;2023-07-31T12:52:40;100422.38;;;24.86;100.00
37860;BME280;23698;52.014;5.190;2023-07-31T12:55:26;100419.09;;;25.03;100.00
37860;BME280;23698;52.014;5.190;2023-07-31T12:58:13;100403.69;;;25.16;100.00
37860;BME280;23698;52.014;5.190;2023-07-31T13:01:00;100407.84;;;24.76;100.00
37860;BME280;23698;52.014;5.190;2023-07-31T13:03:47;100425.13;;;24.43;100.00
37860;BME280;23698;52.014;5.190;2023-07-31T13:06:36;100419.53;;;24.24;100.00
37860;BME280;23698;52.014;5.190;2023-07-31T13:09:23;100414.06;;;25.05;100.00
37860;BME280;23698;52.014;5.190;2023-07-31T13:12:09;100418.47;;;24.20;100.00
37860;BME280;23698;52.014;5.190;2023-07-31T13:14:59;100416.50;;;24.69;100.00
37860;BME280;23698;52.014;5.190;2023-07-31T13:17:48;100392.44;;;23.92;100.00
37860;BME280;23698;52.014;5.190;2023-07-31T13:20:37;100401.16;;;24.04;100.00
37860;BME280;23698;52.014;5.190;2023-07-31T13:23:25;100393.19;;;24.03;100.00
37860;BME280;23698;52.014;5.190;2023-07-31T13:26:14;100386.19;;;23.47;100.00
37860;BME280;23698;52.014;5.190;2023-07-31T13:29:03;100384.69;;;23.94;100.00
37860;BME280;23698;52.014;5.190;2023-07-31T13:31:51;100377.16;;;24.00;100.00
37860;BME280;23698;52.014;5.190;2023-07-31T13:34:38;100381.31;;;23.68;100.00
37860;BME280;23698;52.014;5.190;2023-07-31T13:37:24;100390.00;;;23.90;100.00
37860;BME280;23698;52.014;5.190;2023-07-31T13:40:10;100377.91;;;24.05;100.00
37860;BME280;23698;52.014;5.190;2023-07-31T13:42:56;100382.06;;;24.75;100.00
37860;BME280;23698;52.014;5.190;2023-07-31T13:45:43;100385.41;;;25.67;100.00
37860;BME280;23698;52.014;5.190;2023-07-31T13:48:31;100384.34;;;24.92;100.00
37860;BME280;23698;52.014;5.190;2023-07-31T13:51:17;100384.69;;;24.18;100.00
37860;BME280;23698;52.014;5.190;2023-07-31T13:54:03;100383.91;;;24.12;100.00
37860;BME280;23698;52.014;5.190;2023-07-31T13:56:50;100382.38;;;23.72;100.00
37860;BME280;23698;52.014;5.190;2023-07-31T13:59:36;100392.06;;;24.28;100.00
37860;BME280;23698;52.014;5.190;2023-07-31T14:02:22;100373.22;;;23.77;100.00
37860;BME280;23698;52.014;5.190;2023-07-31T14:05:10;100377.53;;;23.24;100.00
37860;BME280;23698;52.014;5.190;2023-07-31T14:07:56;100368.78;;;24.05;100.00
37860;BME280;23698;52.014;5.190;2023-07-31T14:10:43;100387.22;;;23.90;100.00
37860;BME280;23698;52.014;5.190;2023-07-31T14:13:29;100382.25;;;24.36;100.00
37860;BME280;23698;52.014;5.190;2023-07-31T14:16:15;100379.53;;;24.79;100.00
37860;BME280;23698;52.014;5.190;2023-07-31T14:19:02;100383.88;;;24.66;100.00
37860;BME280;23698;52.014;5.190;2023-07-31T14:21:50;100362.44;;;24.72;100.00
37860;BME280;23698;52.014;5.190;2023-07-31T14:24:54;100358.63;;;24.67;100.00
37860;BME280;23698;52.014;5.190;2023-07-31T14:27:41;100344.31;;;23.59;100.00
37860;BME280;23698;52.014;5.190;2023-07-31T14:30:27;100332.28;;;24.03;100.00
37860;BME280;23698;52.014;5.190;2023-07-31T14:33:13;100340.19;;;23.56;100.00
37860;BME280;23698;52.014;5.190;2023-07-31T14:35:59;100336.28;;;23.57;100.00
37860;BME280;23698;52.014;5.190;2023-07-31T14:38:46;100329.34;;;23.30;100.00
37860;BME280;23698;52.014;5.190;2023-07-31T14:41:32;100346.69;;;23.70;100.00
37860;BME280;23698;52.014;5.190;2023-07-31T14:44:19;100346.72;;;23.65;100.00
37860;BME280;23698;52.014;5.190;2023-07-31T14:47:05;100339.72;;;23.49;100.00
37860;BME280;23698;52.014;5.190;2023-07-31T14:49:51;100326.81;;;23.34;100.00
37860;BME280;23698;52.014;5.190;2023-07-31T14:52:38;100324.88;;;23.64;100.00
37860;BME280;23698;52.014;5.190;2023-07-31T14:55:26;100318.78;;;23.37;100.00
37860;BME280;23698;52.014;5.190;2023-07-31T14:58:12;100307.50;;;23.29;100.00
37860;BME280;23698;52.014;5.190;2023-07-31T16:01:10;100203.44;;;23.14;100.00
37860;BME280;23698;52.014;5.190;2023-07-31T16:03:56;100205.66;;;24.08;100.00
37860;BME280;23698;52.014;5.190;2023-07-31T16:06:43;100198.13;;;23.17;100.00
37860;BME280;23698;52.014;5.190;2023-07-31T16:09:29;100194.41;;;22.69;100.00
37860;BME280;23698;52.014;5.190;2023-07-31T16:12:15;100187.03;;;22.54;100.00
37860;BME280;23698;52.014;5.190;2023-07-31T16:15:02;100195.72;;;23.11;100.00
37860;BME280;23698;52.014;5.190;2023-07-31T16:30:51;100175.91;;;22.64;100.00
37860;BME280;23698;52.014;5.190;2023-07-31T16:33:37;100169.25;;;22.99;100.00
37860;BME280;23698;52.014;5.190;2023-07-31T16:36:24;100162.34;;;22.68;100.00
37860;BME280;23698;52.014;5.190;2023-07-31T16:39:11;100161.56;;;22.62;100.00
37860;BME280;23698;52.014;5.190;2023-07-31T16:41:57;100161.41;;;22.48;100.00
37860;BME280;23698;52.014;5.190;2023-07-31T16:44:43;100154.59;;;22.70;100.00
37860;BME280;23698;52.014;5.190;2023-07-31T16:47:31;100142.41;;;22.41;100.00
37860;BME280;23698;52.014;5.190;2023-07-31T16:50:17;100151.22;;;22.78;100.00
37860;BME280;23698;52.014;5.190;2023-07-31T16:53:06;100132.16;;;22.47;100.00
37860;BME280;23698;52.014;5.190;2023-07-31T16:55:52;100134.16;;;23.00;100.00
37860;BME280;23698;52.014;5.190;2023-07-31T16:58:38;100139.97;;;22.98;100.00
37860;BME280;23698;52.014;5.190;2023-07-31T17:01:24;100138.25;;;23.32;100.00
37860;BME280;23698;52.014;5.190;2023-07-31T17:04:16;100139.28;;;22.53;100.00
37860;BME280;23698;52.014;5.190;2023-07-31T17:07:04;100137.09;;;23.38;100.00
37860;BME280;23698;52.014;5.190;2023-07-31T17:09:51;100142.56;;;23.62;100.00
37860;BME280;23698;52.014;5.190;2023-07-31T17:12:39;100129.63;;;22.80;100.00
37860;BME280;23698;52.014;5.190;2023-07-31T17:15:25;100134.72;;;23.26;100.00
37860;BME280;23698;52.014;5.190;2023-07-31T17:18:14;100136.13;;;23.48;100.00
37860;BME280;23698;52.014;5.190;2023-07-31T17:21:03;100129.19;;;23.26;100.00
37860;BME280;23698;52.014;5.190;2023-07-31T17:23:50;100133.91;;;23.69;100.00
37860;BME280;23698;52.014;5.190;2023-07-31T17:26:36;100125.78;;;23.78;100.00
37860;BME280;23698;52.014;5.190;2023-07-31T17:29:27;100129.03;;;24.23;100.00
37860;BME280;23698;52.014;5.190;2023-07-31T17:32:18;100109.00;;;23.26;100.00
37860;BME280;23698;52.014;5.190;2023-07-31T17:35:08;100105.19;;;23.46;100.00
37860;BME280;23698;52.014;5.190;2023-07-31T17:37:56;100104.03;;;24.28;100.00
37860;BME280;23698;52.014;5.190;2023-07-31T17:40:45;100092.66;;;23.29;100.00
37860;BME280;23698;52.014;5.190;2023-07-31T17:43:34;100094.34;;;23.92;100.00
37860;BME280;23698;52.014;5.190;2023-07-31T17:46:20;100115.63;;;23.92;100.00
37860;BME280;23698;52.014;5.190;2023-07-31T17:49:07;100104.91;;;23.90;100.00
37860;BME280;23698;52.014;5.190;2023-07-31T17:51:55;100103.19;;;23.27;100.00
37860;BME280;23698;52.014;5.190;2023-07-31T17:54:43;100097.94;;;23.50;100.00
37860;BME280;23698;52.014;5.190;2023-07-31T17:57:29;100118.75;;;24.42;100.00
37860;BME280;23698;52.014;5.190;2023-07-31T18:00:15;100107.03;;;23.93;100.00
37860;BME280;23698;52.014;5.190;2023-07-31T18:03:03;100114.97;;;24.00;100.00
37860;BME280;23698;52.014;5.190;2023-07-31T18:05:51;100116.81;;;24.76;100.00
37860;BME280;23698;52.014;5.190;2023-07-31T18:08:37;100105.28;;;24.55;100.00
37860;BME280;23698;52.014;5.190;2023-07-31T18:11:24;100101.69;;;23.78;100.00
37860;BME280;23698;52.014;5.190;2023-07-31T18:14:11;100111.03;;;24.06;100.00
37860;BME280;23698;52.014;5.190;2023-07-31T18:16:57;100108.06;;;23.79;100.00
37860;BME280;23698;52.014;5.190;2023-07-31T18:22:34;100112.53;;;23.55;100.00
37860;BME280;23698;52.014;5.190;2023-07-31T18:25:24;100094.59;;;23.29;100.00
37860;BME280;23698;52.014;5.190;2023-07-31T18:28:14;100094.00;;;23.56;100.00
37860;BME280;23698;52.014;5.190;2023-07-31T18:31:01;100102.25;;;23.80;100.00
37860;BME280;23698;52.014;5.190;2023-07-31T18:33:47;100112.09;;;24.43;100.00
37860;BME280;23698;52.014;5.190;2023-07-31T18:36:33;100120.13;;;23.45;100.00
37860;BME280;23698;52.014;5.190;2023-07-31T18:39:22;100117.56;;;23.48;100.00
37860;BME280;23698;52.014;5.190;2023-07-31T18:42:10;100119.59;;;23.43;100.00
37860;BME280;23698;52.014;5.190;2023-07-31T18:44:59;100112.91;;;23.25;100.00
37860;BME280;23698;52.014;5.190;2023-07-31T18:47:46;100108.84;;;23.60;100.00
37860;BME280;23698;52.014;5.190;2023-07-31T18:50:33;100114.00;;;23.91;100.00
37860;BME280;23698;52.014;5.190;2023-07-31T18:53:25;100095.31;;;23.59;100.00
37860;BME280;23698;52.014;5.190;2023-07-31T18:56:16;100075.75;;;23.74;100.00
37860;BME280;23698;52.014;5.190;2023-07-31T18:59:02;100080.81;;;23.91;100.00
37860;BME280;23698;52.014;5.190;2023-07-31T19:01:50;100076.22;;;24.00;100.00
37860;BME280;23698;52.014;5.190;2023-07-31T19:04:38;100080.66;;;24.01;100.00
37860;BME280;23698;52.014;5.190;2023-07-31T19:07:25;100077.19;;;22.11;100.00
37860;BME280;23698;52.014;5.190;2023-07-31T19:10:12;100074.13;;;24.44;100.00
37860;BME280;23698;52.014;5.190;2023-07-31T19:13:01;100067.66;;;23.59;100.00
37860;BME280;23698;52.014;5.190;2023-07-31T19:15:50;100065.97;;;24.01;100.00
37860;BME280;23698;52.014;5.190;2023-07-31T19:18:40;100067.25;;;23.89;100.00
37860;BME280;23698;52.014;5.190;2023-07-31T19:21:27;100061.06;;;22.23;100.00
37860;BME280;23698;52.014;5.190;2023-07-31T19:24:13;100055.19;;;23.18;100.00
37860;BME280;23698;52.014;5.190;2023-07-31T19:26:59;100049.69;;;23.37;100.00
37860;BME280;23698;52.014;5.190;2023-07-31T19:29:45;100052.56;;;23.08;100.00
37860;BME280;23698;52.014;5.190;2023-07-31T19:32:31;100054.91;;;23.63;100.00
37860;BME280;23698;52.014;5.190;2023-07-31T19:35:19;100062.81;;;24.07;100.00
37860;BME280;23698;52.014;5.190;2023-07-31T19:38:05;100054.28;;;24.04;100.00
37860;BME280;23698;52.014;5.190;2023-07-31T19:40:52;100048.28;;;23.59;100.00
37860;BME280;23698;52.014;5.190;2023-07-31T19:43:38;100043.97;;;24.42;100.00
37860;BME280;23698;52.014;5.190;2023-07-31T19:46:25;100039.13;;;24.48;100.00
37860;BME280;23698;52.014;5.190;2023-07-31T19:49:11;100034.63;;;24.99;100.00
37860;BME280;23698;52.014;5.190;2023-07-31T19:51:58;100027.09;;;24.25;100.00
37860;BME280;23698;52.014;5.190;2023-07-31T19:54:45;100031.94;;;23.81;100.00
37860;BME280;23698;52.014;5.190;2023-07-31T19:57:31;100040.66;;;24.73;100.00
37860;BME280;23698;52.014;5.190;2023-07-31T20:28:45;100025.75;;;23.89;100.00
37860;BME280;23698;52.014;5.190;2023-07-31T20:31:31;100021.47;;;23.40;100.00
37860;BME280;23698;52.014;5.190;2023-07-31T20:34:17;100015.47;;;23.90;100.00
37860;BME280;23698;52.014;5.190;2023-07-31T20:37:04;100015.63;;;23.99;100.00
37860;BME280;23698;52.014;5.190;2023-07-31T20:39:50;100017.47;;;24.22;100.00
37860;BME280;23698;52.014;5.190;2023-07-31T20:42:36;100004.78;;;23.83;100.00
37860;BME280;23698;52.014;5.190;2023-07-31T20:45:26;99999.19;;;22.83;100.00
37860;BME280;23698;52.014;5.190;2023-07-31T20:48:12;100001.03;;;22.93;100.00
37860;BME280;23698;52.014;5.190;2023-07-31T20:50:59;99998.13;;;23.03;100.00
37860;BME280;23698;52.014;5.190;2023-07-31T20:53:47;99994.53;;;23.27;100.00
37860;BME280;23698;52.014;5.190;2023-07-31T20:56:36;99991.78;;;23.65;100.00
37860;BME280;23698;52.014;5.190;2023-07-31T20:59:23;99983.59;;;22.92;100.00
37860;BME280;23698;52.014;5.190;2023-07-31T21:02:11;99976.75;;;23.52;100.00
37860;BME280;23698;52.014;5.190;2023-07-31T21:04:57;99969.66;;;24.17;100.00
37860;BME280;23698;52.014;5.190;2023-07-31T21:07:43;99964.25;;;23.92;100.00
37860;BME280;23698;52.014;5.190;2023-07-31T21:10:30;99958.53;;;23.32;100.00
37860;BME280;23698;52.014;5.190;2023-07-31T21:13:17;99949.47;;;23.64;100.00
37860;BME280;23698;52.014;5.190;2023-07-31T21:16:03;99957.31;;;24.09;100.00
37860;BME280;23698;52.014;5.190;2023-07-31T21:18:51;99948.06;;;24.00;100.00
37860;BME280;23698;52.014;5.190;2023-07-31T21:21:38;99954.66;;;24.64;100.00
37860;BME280;23698;52.014;5.190;2023-07-31T21:24:25;99932.28;;;24.00;100.00
37860;BME280;23698;52.014;5.190;2023-07-31T21:27:11;99934.06;;;23.58;100.00
37860;BME280;23698;52.014;5.190;2023-07-31T21:29:57;99930.31;;;24.01;100.00
37860;BME280;23698;52.014;5.190;2023-07-31T21:32:44;99927.81;;;24.46;100.00
37860;BME280;23698;52.014;5.190;2023-07-31T21:35:31;99924.50;;;23.50;100.00
37860;BME280;23698;52.014;5.190;2023-07-31T21:38:18;99918.03;;;24.54;100.00
37860;BME280;23698;52.014;5.190;2023-07-31T21:41:04;99913.09;;;23.90;100.00
37860;BME280;23698;52.014;5.190;2023-07-31T21:43:50;99916.59;;;23.44;100.00
37860;BME280;23698;52.014;5.190;2023-07-31T21:46:36;99923.06;;;23.72;100.00
37860;BME280;23698;52.014;5.190;2023-07-31T21:49:24;99914.22;;;23.70;100.00
37860;BME280;23698;52.014;5.190;2023-07-31T21:52:11;99917.31;;;23.68;100.00
37860;BME280;23698;52.014;5.190;2023-07-31T21:54:58;99913.13;;;24.04;100.00
37860;BME280;23698;52.014;5.190;2023-07-31T21:57:44;99915.72;;;23.10;100.00
37860;BME280;23698;52.014;5.190;2023-07-31T22:00:30;99909.69;;;23.60;100.00
37860;BME280;23698;52.014;5.190;2023-07-31T22:03:17;99904.00;;;24.03;100.00
37860;BME280;23698;52.014;5.190;2023-07-31T22:06:03;99895.22;;;24.43;100.00
37860;BME280;23698;52.014;5.190;2023-07-31T22:08:51;99899.72;;;24.80;100.00
37860;BME280;23698;52.014;5.190;2023-07-31T22:11:37;99894.16;;;24.94;100.00
37860;BME280;23698;52.014;5.190;2023-07-31T22:14:23;99888.75;;;24.75;100.00
